createdAt,value
2019-04-05T00:01:17.131Z,98978.00
2019-04-05T00:03:45.714Z,98975.94
2019-04-05T00:06:13.780Z,98975.33
2019-04-05T00:08:41.781Z,98979.53
2019-04-05T00:11:09.791Z,98983.30
2019-04-05T00:13:37.768Z,98983.30
2019-04-05T00:16:06.434Z,98983.50
2019-04-05T00:18:34.424Z,98982.61
2019-04-05T00:21:04.854Z,98986.41
2019-04-05T00:23:35.276Z,98983.94
2019-04-05T00:26:04.309Z,98988.75
2019-04-05T00:28:32.306Z,98983.41
2019-04-05T00:31:00.244Z,98986.92
2019-04-05T00:33:28.423Z,98986.11
2019-04-05T00:35:56.478Z,98976.55
2019-04-05T00:38:24.394Z,98978.19
2019-04-05T00:40:52.351Z,98978.19
2019-04-05T00:43:20.267Z,98979.24
2019-04-05T00:45:48.140Z,98984.05
2019-04-05T00:48:16.125Z,98978.30
2019-04-05T00:50:44.181Z,98980.16
2019-04-05T00:53:12.806Z,98982.02
2019-04-05T00:55:40.886Z,98981.08
2019-04-05T00:58:08.817Z,98981.08
2019-04-05T01:00:36.873Z,98984.47
2019-04-05T01:03:04.964Z,98983.22
2019-04-05T01:05:33.280Z,98988.55
2019-04-05T01:08:01.472Z,98985.59
2019-04-05T01:10:29.486Z,98988.56
2019-04-05T01:12:57.593Z,98995.73
2019-04-05T01:15:25.609Z,98993.23
2019-04-05T01:17:54.199Z,98996.25
2019-04-05T01:20:24.215Z,98990.27
2019-04-05T01:22:53.295Z,98991.72
2019-04-05T01:25:22.088Z,98987.61
2019-04-05T01:27:50.688Z,98992.83
2019-04-05T01:30:18.733Z,98992.33
2019-04-05T01:32:47.391Z,98997.23
2019-04-05T01:35:15.421Z,98995.91
2019-04-05T01:37:43.843Z,98994.78
2019-04-05T01:40:13.040Z,98997.35
2019-04-05T01:42:41.716Z,98995.38
2019-04-05T01:45:09.879Z,98990.36
2019-04-05T01:47:38.058Z,98990.36
2019-04-05T01:50:06.774Z,98997.13
2019-04-05T01:52:35.462Z,98978.98
2019-04-05T01:55:03.592Z,98993.44
2019-04-05T01:57:31.560Z,98994.96
2019-04-05T01:59:59.468Z,98996.39
2019-04-05T02:02:27.544Z,98990.55
2019-04-05T02:04:56.061Z,98986.75
2019-04-05T02:07:24.115Z,98986.75
2019-04-05T02:09:52.258Z,98990.66
2019-04-05T02:12:20.368Z,98989.64
2019-04-05T02:14:48.395Z,98988.00
2019-04-05T02:17:16.481Z,98988.59
2019-04-05T02:19:44.495Z,98993.41
2019-04-05T02:22:12.574Z,98991.28
2019-04-05T02:24:40.599Z,98995.87
2019-04-05T02:27:09.382Z,98994.35
2019-04-05T02:29:37.419Z,98993.11
2019-04-05T02:32:05.539Z,98997.81
2019-04-05T02:34:33.937Z,98998.31
2019-04-05T02:37:02.085Z,99003.33
2019-04-05T02:39:29.991Z,99000.77
2019-04-05T02:41:58.375Z,99000.77
2019-04-05T02:44:30.339Z,99005.47
2019-04-05T02:46:59.115Z,99006.98
2019-04-05T02:49:30.355Z,99006.98
2019-04-05T02:52:00.113Z,99003.21
2019-04-05T02:54:29.127Z,99008.63
2019-04-05T02:56:58.375Z,99010.45
2019-04-05T02:59:36.675Z,99010.27
2019-04-05T03:02:05.680Z,99010.27
2019-04-05T03:04:33.828Z,99023.28
2019-04-05T03:07:03.234Z,99013.91
2019-04-05T03:09:31.828Z,99016.09
2019-04-05T03:12:00.266Z,99013.78
2019-04-05T03:14:29.262Z,99013.78
2019-04-05T03:16:58.486Z,99016.67
2019-04-05T03:19:30.840Z,99021.50
2019-04-05T03:22:03.975Z,99021.50
2019-04-05T03:24:35.345Z,99027.63
2019-04-05T03:27:12.467Z,99026.08
2019-04-05T03:29:41.936Z,99027.80
2019-04-05T03:32:10.001Z,99027.80
2019-04-05T03:34:39.777Z,99018.67
2019-04-05T03:37:07.855Z,99033.52
2019-04-05T03:39:35.949Z,99030.06
2019-04-05T03:42:04.239Z,99041.20
2019-04-05T03:44:32.649Z,99041.20
2019-04-05T03:47:01.001Z,99040.53
2019-04-05T03:49:29.897Z,99035.20
2019-04-05T03:51:57.948Z,99034.70
2019-04-05T03:54:26.243Z,99034.70
2019-04-05T03:56:54.346Z,99034.53
2019-04-05T03:59:23.054Z,99035.42
2019-04-05T04:01:51.399Z,99036.27
2019-04-05T04:04:19.689Z,99036.27
2019-04-05T04:06:48.112Z,99036.19
2019-04-05T04:09:16.973Z,99041.77
2019-04-05T04:11:45.028Z,99043.96
2019-04-05T04:14:14.333Z,99046.63
2019-04-05T04:16:42.886Z,99044.88
2019-04-05T04:19:11.676Z,99052.73
2019-04-05T04:22:23.985Z,99059.66
2019-04-05T04:24:52.044Z,99059.66
2019-04-05T04:27:20.684Z,99054.02
2019-04-05T04:29:48.716Z,99062.94
2019-04-05T04:32:26.585Z,99066.66
2019-04-05T04:34:55.388Z,99055.75
2019-04-05T04:37:23.489Z,99071.17
2019-04-05T04:39:51.782Z,99073.59
2019-04-05T04:42:20.185Z,99066.77
2019-04-05T04:44:48.385Z,99075.80
2019-04-05T04:47:26.340Z,99083.20
2019-04-05T04:49:46.989Z,99080.83
2019-04-05T04:52:16.009Z,99086.81
2019-04-05T04:54:44.716Z,99076.95
2019-04-05T04:57:12.749Z,99076.95
2019-04-05T04:59:40.831Z,99085.55
2019-04-05T05:02:09.037Z,99101.50
2019-04-05T05:04:38.081Z,99098.77
2019-04-05T05:07:06.313Z,99088.52
2019-04-05T05:09:35.298Z,99092.38
2019-04-05T05:12:03.565Z,99096.88
2019-04-05T05:14:31.832Z,99101.89
2019-04-05T05:17:00.082Z,99109.48
2019-04-05T05:19:28.297Z,99109.48
2019-04-05T05:21:56.305Z,99111.23
2019-04-05T05:24:24.636Z,99105.67
2019-04-05T05:26:53.751Z,99118.09
2019-04-05T05:29:22.213Z,99116.69
2019-04-05T05:31:50.199Z,99116.69
2019-04-05T05:34:19.722Z,99108.64
2019-04-05T05:36:48.318Z,99108.64
2019-04-05T05:39:17.674Z,99120.67
2019-04-05T05:41:46.257Z,99125.92
2019-04-05T05:44:14.413Z,99123.05
2019-04-05T05:46:42.382Z,99123.05
2019-04-05T05:49:10.903Z,99126.72
2019-04-05T05:51:39.675Z,99126.72
2019-04-05T05:54:07.455Z,99125.07
2019-04-05T05:56:36.050Z,99130.47
2019-04-05T05:59:04.128Z,99135.47
2019-04-05T06:01:32.105Z,99140.86
2019-04-05T06:04:00.267Z,99139.01
2019-04-05T06:06:28.260Z,99142.83
2019-04-05T06:08:56.138Z,99142.75
2019-04-05T06:11:24.087Z,99146.74
2019-04-05T06:13:52.068Z,99146.74
2019-04-05T06:16:20.382Z,99148.00
2019-04-05T06:18:48.682Z,99154.80
2019-04-05T06:21:16.742Z,99144.33
2019-04-05T06:23:44.892Z,99150.03
2019-04-05T06:26:12.732Z,99150.03
2019-04-05T06:28:40.732Z,99158.72
2019-04-05T06:31:08.753Z,99157.14
2019-04-05T06:33:36.632Z,99157.14
2019-04-05T06:36:04.726Z,99159.91
2019-04-05T06:38:32.675Z,99159.91
2019-04-05T06:41:00.636Z,99160.08
2019-04-05T06:43:28.433Z,99158.19
2019-04-05T06:45:56.548Z,99165.08
2019-04-05T06:48:24.618Z,99165.08
2019-04-05T06:50:53.350Z,99164.02
2019-04-05T06:53:21.229Z,99171.41
2019-04-05T06:55:49.186Z,99171.00
2019-04-05T06:58:20.298Z,99169.82
2019-04-05T07:00:57.014Z,99163.90
2019-04-05T07:03:16.626Z,99163.90
2019-04-05T07:05:44.638Z,99156.76
2019-04-05T07:08:12.693Z,99177.11
2019-04-05T07:10:40.629Z,99177.11
2019-04-05T07:13:08.732Z,99180.00
2019-04-05T07:15:36.756Z,99183.73
2019-04-05T07:18:04.769Z,99180.05
2019-04-05T07:20:32.821Z,99177.28
2019-04-05T07:23:00.692Z,99177.28
2019-04-05T07:25:29.517Z,99179.09
2019-04-05T07:27:57.529Z,99179.09
2019-04-05T07:30:28.656Z,99184.38
2019-04-05T07:32:55.983Z,99184.50
2019-04-05T07:35:33.285Z,99184.50
2019-04-05T07:37:53.711Z,99180.08
2019-04-05T07:40:21.688Z,99178.75
2019-04-05T07:42:49.758Z,99177.64
2019-04-05T07:45:17.737Z,99192.30
2019-04-05T07:47:45.676Z,99193.22
2019-04-05T07:50:13.665Z,99193.22
2019-04-05T07:52:41.752Z,99190.05
2019-04-05T07:55:09.843Z,99193.84
2019-04-05T07:57:37.910Z,99202.24
2019-04-05T08:00:07.509Z,99202.24
2019-04-05T08:02:35.438Z,99198.96
2019-04-05T08:05:06.202Z,99202.63
2019-04-05T08:07:37.567Z,99201.25
2019-04-05T08:10:06.871Z,99197.62
2019-04-05T08:12:37.050Z,99197.38
2019-04-05T08:15:05.534Z,99194.59
2019-04-05T08:17:33.577Z,99194.70
2019-04-05T08:20:02.368Z,99196.09
2019-04-05T08:22:32.295Z,99201.00
2019-04-05T08:25:00.055Z,99200.02
2019-04-05T08:27:27.905Z,99200.28
2019-04-05T08:29:55.779Z,99202.27
2019-04-05T08:32:23.703Z,99203.22
2019-04-05T08:34:51.597Z,99198.24
2019-04-05T08:37:19.665Z,99200.41
2019-04-05T08:39:47.681Z,99204.20
2019-04-05T08:42:15.638Z,99206.98
2019-04-05T08:44:43.432Z,99205.84
2019-04-05T08:47:11.823Z,99211.50
2019-04-05T08:49:39.595Z,99205.45
2019-04-05T08:52:07.652Z,99197.59
2019-04-05T08:54:36.972Z,99209.72
2019-04-05T08:57:05.603Z,99201.98
2019-04-05T08:59:33.586Z,99203.62
2019-04-05T09:02:01.629Z,99199.59
2019-04-05T09:04:29.471Z,99199.59
2019-04-05T09:06:57.661Z,99201.63
2019-04-05T09:09:25.517Z,99203.28
2019-04-05T09:11:54.051Z,99203.73
2019-04-05T09:14:21.921Z,99203.73
2019-04-05T09:16:49.869Z,99197.94
2019-04-05T09:19:23.408Z,99204.84
2019-04-05T09:21:47.493Z,99197.88
2019-04-05T09:24:15.394Z,99196.84
2019-04-05T09:26:43.290Z,99197.72
2019-04-05T09:29:11.137Z,99193.38
2019-04-05T09:31:39.028Z,99191.42
2019-04-05T09:34:06.881Z,99184.45
2019-04-05T09:36:34.855Z,99186.80
2019-04-05T09:39:05.554Z,99194.86
2019-04-05T09:41:35.331Z,99197.04
2019-04-05T09:44:03.361Z,99202.24
2019-04-05T09:46:31.141Z,99201.63
2019-04-05T09:48:59.168Z,99188.06
2019-04-05T09:51:27.022Z,99194.65
2019-04-05T09:53:55.064Z,99198.41
2019-04-05T09:56:22.858Z,99197.79
2019-04-05T09:58:50.703Z,99198.75
2019-04-05T10:01:20.109Z,99188.90
2019-04-05T10:03:48.134Z,99192.06
2019-04-05T10:06:16.103Z,99197.65
2019-04-05T10:08:43.921Z,99196.91
2019-04-05T10:11:11.695Z,99183.95
2019-04-05T10:13:46.363Z,99187.28
2019-04-05T10:16:14.133Z,99181.89
2019-04-05T10:18:42.059Z,99181.05
2019-04-05T10:21:10.046Z,99171.55
2019-04-05T10:23:38.162Z,99171.69
2019-04-05T10:26:06.225Z,99172.42
2019-04-05T10:28:34.140Z,99173.16
2019-04-05T10:31:02.030Z,99173.06
2019-04-05T10:33:30.065Z,99173.02
2019-04-05T10:35:57.938Z,99172.10
2019-04-05T10:38:26.021Z,99173.16
2019-04-05T10:40:53.993Z,99165.16
2019-04-05T10:43:21.909Z,99178.00
2019-04-05T10:45:50.583Z,99167.26
2019-04-05T10:48:18.525Z,99172.92
2019-04-05T10:50:48.313Z,99171.77
2019-04-05T10:53:16.128Z,99170.31
2019-04-05T10:55:43.891Z,99160.59
2019-04-05T10:58:11.954Z,99178.27
2019-04-05T11:00:39.930Z,99168.48
2019-04-05T11:03:07.877Z,99163.45
2019-04-05T11:05:37.165Z,99166.43
2019-04-05T11:08:05.431Z,99166.28
2019-04-05T11:10:33.308Z,99168.84
2019-04-05T11:13:01.852Z,99163.52
2019-04-05T11:15:31.037Z,99164.98
2019-04-05T11:17:59.333Z,99163.54
2019-04-05T11:20:27.188Z,99167.93
2019-04-05T11:22:54.971Z,99162.97
2019-04-05T11:25:23.075Z,99153.16
2019-04-05T11:27:50.840Z,99159.07
2019-04-05T11:30:40.459Z,99151.54
2019-04-05T11:33:08.403Z,99155.74
2019-04-05T11:35:36.710Z,99150.95
2019-04-05T11:38:04.796Z,99149.36
2019-04-05T11:40:33.112Z,99148.53
2019-04-05T11:43:02.861Z,99143.69
2019-04-05T11:45:32.636Z,99155.28
2019-04-05T11:48:02.471Z,99148.86
2019-04-05T11:50:34.671Z,99138.01
2019-04-05T11:53:00.492Z,99148.30
2019-04-05T11:55:28.434Z,99150.38
2019-04-05T11:57:56.346Z,99143.38
2019-04-05T12:00:33.233Z,99140.22
2019-04-05T12:03:04.118Z,99149.13
2019-04-05T12:05:32.191Z,99138.00
2019-04-05T12:08:01.859Z,99134.30
2019-04-05T12:10:31.978Z,99135.98
2019-04-05T12:12:59.530Z,99134.66
2019-04-05T12:15:27.876Z,99127.62
2019-04-05T12:18:04.633Z,99122.58
2019-04-05T12:20:33.258Z,99134.78
2019-04-05T12:23:01.567Z,99124.53
2019-04-05T12:25:29.377Z,99125.92
2019-04-05T12:28:06.250Z,99125.38
2019-04-05T12:30:27.562Z,99116.18
2019-04-05T12:32:55.452Z,99119.75
2019-04-05T12:35:23.290Z,99114.84
2019-04-05T12:37:55.463Z,99120.81
2019-04-05T12:40:20.832Z,99114.83
2019-04-05T12:42:48.684Z,99109.39
2019-04-05T12:45:16.708Z,99107.35
2019-04-05T12:47:45.704Z,99101.03
2019-04-05T12:50:15.328Z,99105.42
2019-04-05T12:52:43.430Z,99097.91
2019-04-05T12:55:11.543Z,99104.36
2019-04-05T12:57:39.420Z,99096.55
2019-04-05T13:00:12.978Z,99093.02
2019-04-05T13:02:39.217Z,99095.17
2019-04-05T13:05:07.129Z,99094.91
2019-04-05T13:07:35.468Z,99090.02
2019-04-05T13:10:04.163Z,99088.16
2019-04-05T13:12:32.195Z,99093.56
2019-04-05T13:15:11.624Z,99088.20
2019-04-05T13:17:31.204Z,99086.32
2019-04-05T13:20:11.024Z,99080.09
2019-04-05T13:22:40.732Z,99081.20
2019-04-05T13:25:11.096Z,99080.93
2019-04-05T13:27:41.312Z,99086.37
2019-04-05T13:30:08.580Z,99076.03
2019-04-05T13:32:36.341Z,99081.19
2019-04-05T13:35:04.928Z,99079.56
2019-04-05T13:37:32.779Z,99079.60
2019-04-05T13:40:00.756Z,99078.25
2019-04-05T13:42:31.231Z,99078.77
2019-04-05T13:44:58.359Z,99079.60
2019-04-05T13:47:26.146Z,99086.66
2019-04-05T13:49:54.064Z,99082.02
2019-04-05T13:52:22.030Z,99080.14
2019-04-05T13:54:49.976Z,99072.28
2019-04-05T13:57:18.469Z,99076.33
2019-04-05T13:59:46.277Z,99081.50
2019-04-05T14:02:14.309Z,99062.52
2019-04-05T14:04:42.121Z,99080.38
2019-04-05T14:07:10.135Z,99079.53
2019-04-05T14:09:38.467Z,99080.89
2019-04-05T14:12:09.508Z,99084.95
2019-04-05T14:14:39.389Z,99077.04
2019-04-05T14:17:08.259Z,99074.33
2019-04-05T14:19:36.253Z,99077.29
2019-04-05T14:22:08.819Z,99068.34
2019-04-05T14:24:36.281Z,99074.58
2019-04-05T14:27:04.415Z,99071.91
2019-04-05T14:29:33.349Z,99075.96
2019-04-05T14:32:19.463Z,99075.68
2019-04-05T14:34:31.846Z,99070.06
2019-04-05T14:36:59.782Z,99069.52
2019-04-05T14:39:27.593Z,99066.28
2019-04-05T14:41:55.500Z,99068.22
2019-04-05T14:44:23.399Z,99068.20
2019-04-05T14:46:51.410Z,99068.47
2019-04-05T14:49:19.242Z,99066.05
2019-04-05T14:51:53.733Z,99073.08
2019-04-05T14:54:16.843Z,99071.19
2019-04-05T14:56:44.666Z,99076.61
2019-04-05T14:59:12.420Z,99065.70
2019-04-05T15:01:40.340Z,99064.25
2019-04-05T15:04:08.122Z,99067.75
2019-04-05T15:06:36.125Z,99072.34
2019-04-05T15:09:05.498Z,99074.00
2019-04-05T15:11:33.519Z,99074.62
2019-04-05T15:14:01.496Z,99078.09
2019-04-05T15:16:29.421Z,99083.32
2019-04-05T15:18:57.278Z,99083.44
2019-04-05T15:21:25.194Z,99088.06
2019-04-05T15:23:53.052Z,99091.55
2019-04-05T15:26:21.508Z,99084.46
2019-04-05T15:28:49.526Z,99093.81
2019-04-05T15:31:17.338Z,99093.97
2019-04-05T15:33:45.114Z,99090.45
2019-04-05T15:36:12.950Z,99088.42
2019-04-05T15:38:40.913Z,99093.59
2019-04-05T15:41:08.910Z,99093.37
2019-04-05T15:43:36.771Z,99093.30
2019-04-05T15:46:04.846Z,99095.09
2019-04-05T15:48:32.704Z,99102.53
2019-04-05T15:51:00.592Z,99101.20
2019-04-05T15:53:32.164Z,99093.78
2019-04-05T15:56:05.091Z,99108.30
2019-04-05T15:58:34.094Z,99101.41
2019-04-05T16:01:04.411Z,99108.69
2019-04-05T16:03:33.288Z,99109.41
2019-04-05T16:06:01.265Z,99110.19
2019-04-05T16:08:29.333Z,99116.57
2019-04-05T16:10:57.437Z,99112.03
2019-04-05T16:13:25.247Z,99117.06
2019-04-05T16:15:53.107Z,99110.48
2019-04-05T16:18:21.032Z,99115.59
2019-04-05T16:20:48.900Z,99116.44
2019-04-05T16:23:16.938Z,99123.30
2019-04-05T16:25:44.798Z,99116.55
2019-04-05T16:28:12.720Z,99120.67
2019-04-05T16:30:40.597Z,99125.16
2019-04-05T16:33:08.514Z,99135.88
2019-04-05T16:35:36.265Z,99139.34
2019-04-05T16:38:04.512Z,99148.63
2019-04-05T16:40:32.461Z,99145.09
2019-04-05T16:43:02.585Z,99146.56
2019-04-05T16:45:30.285Z,99152.52
2019-04-05T16:47:58.109Z,99158.84
2019-04-05T16:50:26.077Z,99156.27
2019-04-05T16:52:54.005Z,99150.54
2019-04-05T16:55:21.962Z,99156.27
2019-04-05T16:57:49.891Z,99158.58
2019-04-05T17:00:18.269Z,99159.06
2019-04-05T17:02:46.180Z,99170.63
2019-04-05T17:05:16.897Z,99165.59
2019-04-05T17:07:44.836Z,99169.13
2019-04-05T17:10:13.580Z,99177.38
2019-04-05T17:12:42.823Z,99179.31
2019-04-05T17:15:13.485Z,99186.30
2019-04-05T17:17:41.500Z,99180.70
2019-04-05T17:20:09.688Z,99174.20
2019-04-05T17:22:37.655Z,99180.34
2019-04-05T17:25:05.601Z,99171.66
2019-04-05T17:27:33.579Z,99173.00
2019-04-05T17:30:01.502Z,99172.42
2019-04-05T17:32:29.349Z,99181.58
2019-04-05T17:34:57.178Z,99176.09
2019-04-05T17:37:26.770Z,99168.67
2019-04-05T17:39:55.428Z,99172.20
2019-04-05T17:42:23.304Z,99176.56
2019-04-05T17:44:53.597Z,99179.36
2019-04-05T17:47:21.549Z,99181.03
2019-04-05T17:49:49.656Z,99184.70
2019-04-05T17:52:17.513Z,99179.58
2019-04-05T17:54:45.582Z,99180.91
2019-04-05T17:57:13.770Z,99174.66
2019-04-05T17:59:41.799Z,99181.48
2019-04-05T18:02:09.804Z,99183.13
2019-04-05T18:04:37.624Z,99184.69
2019-04-05T18:07:05.629Z,99179.48
2019-04-05T18:09:33.557Z,99177.27
2019-04-05T18:12:01.574Z,99181.34
2019-04-05T18:14:29.490Z,99178.37
2019-04-05T18:16:57.261Z,99183.59
2019-04-05T18:19:25.322Z,99189.46
2019-04-05T18:21:53.494Z,99183.16
2019-04-05T18:24:21.382Z,99187.57
2019-04-05T18:26:51.469Z,99188.57
2019-04-05T18:29:19.418Z,99195.63
2019-04-05T18:31:49.374Z,99193.73
2019-04-05T18:34:17.460Z,99198.34
2019-04-05T18:36:46.047Z,99204.55
2019-04-05T18:39:15.212Z,99197.17
2019-04-05T18:41:43.217Z,99203.88
2019-04-05T18:44:11.381Z,99202.20
2019-04-05T18:46:39.359Z,99201.66
2019-04-05T18:49:07.313Z,99205.39
2019-04-05T18:51:35.197Z,99201.95
2019-04-05T18:54:03.423Z,99204.34
2019-04-05T18:56:31.380Z,99203.97
2019-04-05T18:58:59.332Z,99208.04
2019-04-05T19:01:29.547Z,99219.53
2019-04-05T19:03:58.486Z,99220.29
2019-04-05T19:06:26.567Z,99219.53
2019-04-05T19:08:54.509Z,99224.94
2019-04-05T19:11:22.493Z,99225.25
2019-04-05T19:14:00.507Z,99219.91
2019-04-05T19:16:20.138Z,99225.88
2019-04-05T19:18:48.071Z,99235.41
2019-04-05T19:21:15.935Z,99240.80
2019-04-05T19:23:50.734Z,99237.08
2019-04-05T19:26:13.904Z,99241.55
2019-04-05T19:28:41.839Z,99235.42
2019-04-05T19:48:41.395Z,99196.84
2019-04-05T19:51:09.495Z,99187.30
2019-04-05T19:53:37.479Z,99192.58
2019-04-05T19:56:05.494Z,99201.95
2019-04-05T19:58:34.135Z,99205.98
2019-04-05T20:01:02.357Z,99211.09
2019-04-05T20:03:31.375Z,99216.69
2019-04-05T20:05:59.210Z,99223.53
2019-04-05T20:08:27.167Z,99227.23
2019-04-05T20:10:55.271Z,99221.88
2019-04-05T20:13:23.184Z,99220.44
2019-04-05T20:15:51.111Z,99213.88
2019-04-05T20:18:19.326Z,99210.86
2019-04-05T20:20:47.261Z,99214.82
2019-04-05T20:23:15.203Z,99216.86
2019-04-05T20:25:43.270Z,99212.23
2019-04-05T20:28:13.140Z,99212.49
2019-04-05T20:30:41.062Z,99212.03
2019-04-05T20:33:09.262Z,99210.45
2019-04-05T20:35:39.309Z,99200.78
2019-04-05T20:38:07.560Z,99200.34
2019-04-05T20:40:35.752Z,99195.95
2019-04-05T20:43:03.869Z,99203.27
2019-04-05T20:45:31.932Z,99201.22
2019-04-05T20:48:00.141Z,99206.36
2019-04-05T20:50:28.080Z,99201.98
2019-04-05T20:52:55.955Z,99207.54
2019-04-05T20:55:23.828Z,99210.92
2019-04-05T20:57:51.612Z,99208.12
2019-04-05T21:00:19.688Z,99216.22
2019-04-05T21:02:48.833Z,99212.59
2019-04-05T21:05:25.296Z,99214.14
2019-04-05T21:07:47.656Z,99217.20
2019-04-05T21:10:15.783Z,99217.19
2019-04-05T21:12:43.901Z,99218.46
2019-04-05T21:15:13.586Z,99222.64
2019-04-05T21:17:43.173Z,99230.48
2019-04-05T21:20:11.875Z,99231.83
2019-04-05T21:22:41.877Z,99229.88
2019-04-05T21:25:10.855Z,99233.09
2019-04-05T21:27:39.489Z,99235.58
2019-04-05T21:30:08.175Z,99233.94
2019-04-05T21:32:39.689Z,99236.64
2019-04-05T21:35:08.700Z,99242.91
2019-04-05T21:37:36.946Z,99241.27
2019-04-05T21:40:06.395Z,99244.47
2019-04-05T21:42:34.636Z,99247.86
2019-04-05T21:45:02.928Z,99249.73
2019-04-05T21:47:30.813Z,99259.40
2019-04-05T21:49:58.726Z,99259.40
2019-04-05T21:52:27.442Z,99248.69
2019-04-05T21:54:55.432Z,99254.53
2019-04-05T21:57:42.897Z,99254.53
2019-04-05T22:00:22.302Z,99253.20
2019-04-05T22:02:50.271Z,99249.82
2019-04-05T22:05:18.286Z,99249.92
2019-04-05T22:07:46.260Z,99256.08
2019-04-05T22:10:14.282Z,99257.50
2019-04-05T22:12:44.270Z,99258.92
2019-04-05T22:15:12.557Z,99251.00
2019-04-05T22:17:40.964Z,99251.19
2019-04-05T22:20:09.009Z,99257.77
2019-04-05T22:22:36.938Z,99256.73
2019-04-05T22:25:06.122Z,99253.23
2019-04-05T22:27:34.388Z,99249.73
2019-04-05T22:30:02.887Z,99248.45
2019-04-05T22:32:30.740Z,99248.45
2019-04-05T22:34:58.620Z,99247.75
2019-04-05T22:37:26.670Z,99247.84
2019-04-05T22:39:57.751Z,99252.06
2019-04-05T22:42:25.719Z,99261.80
2019-04-05T22:44:53.708Z,99263.20
2019-04-05T22:47:21.728Z,99264.41
2019-04-05T22:49:49.513Z,99261.52
2019-04-05T22:52:17.395Z,99265.50
2019-04-05T22:54:45.228Z,99265.66
2019-04-05T22:57:13.152Z,99269.43
2019-04-05T22:59:41.051Z,99262.56
2019-04-05T23:02:08.888Z,99262.92
2019-04-05T23:04:36.759Z,99254.46
2019-04-05T23:07:04.590Z,99270.37
2019-04-05T23:09:32.494Z,99270.55
2019-04-05T23:12:00.398Z,99269.83
2019-04-05T23:14:28.313Z,99273.30
2019-04-05T23:16:56.630Z,99268.58
2019-04-05T23:19:24.504Z,99265.77
2019-04-05T23:21:52.337Z,99269.53
2019-04-05T23:24:20.208Z,99276.81
2019-04-05T23:26:48.113Z,99275.95
2019-04-05T23:29:15.899Z,99274.14
2019-04-05T23:31:43.824Z,99276.38
2019-04-05T23:34:11.714Z,99276.25
2019-04-05T23:36:39.714Z,99278.80
2019-04-05T23:39:07.777Z,99274.59
2019-04-05T23:41:35.739Z,99276.70
2019-04-05T23:44:03.764Z,99276.94
2019-04-05T23:46:31.697Z,99275.89
2019-04-05T23:49:00.136Z,99271.77
2019-04-05T23:51:27.920Z,99273.97
2019-04-05T23:53:55.896Z,99269.59
2019-04-05T23:56:23.674Z,99281.39
2019-04-05T23:58:51.710Z,99283.73
